Seymour Johnson Air Force Base
KGSB : now visible

Airfield :











YOU CAN JOIN US ON...

 
LOGIN :

Register | Disclaimer

   EN    FR    IT 

 









Legend :    VFR   Marginal VFR   IFR   Intensive IFR   Very Intensive IFR
Visi :
Ceiling :
>= 8 km
>= 3000ft
5 to 8 km
1000 to 3000 ft
1500m to 5 km
500 to 1000 ft
800 to 1500m
200 to 500 ft
< 800m
< 200 ft
Symbols :   Thunderstorms  Fog  Heavy snow  Heavy precipitations  Wind > 20 kt






- Airport Elevation : 109 ft


KGSB - Seymour Johnson Air Force Base

CURRENT METAR :
  • 200256Z AUTO 21005KT 10SM CLR 08/00 A3021 RMK AO2 SLP234 T00840004 57008 $

EXPIRED METARs :
  • 200156Z AUTO 19006KT 10SM CLR 09/M00 A3022 RMK AO2 SLP237 T00911002 $
  • 200056Z AUTO 17004KT 10SM CLR 09/M02 A3022 RMK AO2 SLP237 T00891018 $

TAF TAF KGSB
Valid from the 19 at 21:00 until the 21 at 03:00 UTC


192100Z 1921/2103 23014KT 9999 SKC QNH3024INS
BECMG 1922/1923 22015KT 9999 BKN050 QNH3021INS
BECMG 2014/2015 29015G25KT 9999 BKN030 QNH3007INS
BECMG 2016/2017 32012KT 9999 FEW040 QNH3012INS TX11/1921Z TN03/2003Z
KZDC FIR / North America



MET'MAP, your aeronautical weather chart ! - Copyright ORBIFLY December 2007 - Disclaimer

ORBIFLY MET'MAP TEAM :

Programming & Development : Alexandra Zaïnal
Concept & original design : Baudouin d'Aumeries
Assistance for programming : Marc-Olivier Méhu
Technical & hardware support : Manuel Goepfert

Contact : metmap@orbifly.com




SOURCES & CREDITS :

   NOAA       Earth
Advisory